MDT,Max TemperatureF,Mean TemperatureF,Min TemperatureF,Max Dew PointF,MeanDew PointF,Min DewpointF,Max Humidity, Mean Humidity, Min Humidity, Max Sea Level PressureIn, Mean Sea Level PressureIn, Min Sea Level PressureIn, Max VisibilityMiles, Mean VisibilityMiles, Min VisibilityMiles, Max Wind SpeedMPH, Mean Wind SpeedMPH, Max Gust SpeedMPH,PrecipitationIn, CloudCover, Events, WindDirDegrees
2013-3-1,48,40,33,39,33,28,87,81,71,30.56,30.50,30.45,10,5,0,12,3,,0.02,5,,285
2013-3-2,53,42,30,39,33,27,87,72,51,30.45,30.24,30.03,10,7,0,15,5,21,0.00,4,,201
2013-3-3,48,38,28,37,25,12,87,57,27,30.14,30.05,30.00,10,9,3,24,7,29,0.06,4,,324
2013-3-4,46,34,21,21,14,9,74,46,23,30.27,30.20,30.14,10,10,10,16,7,23,0.00,0,,215
2013-3-5,53,43,33,21,18,12,48,37,26,30.13,29.96,29.73,10,10,10,32,21,41,0.00,1,,154
2013-3-6,59,47,35,32,23,18,66,43,21,29.98,29.75,29.65,10,10,8,38,15,51,0.00,4,Thunderstorm,194
2013-3-7,50,37,24,27,21,18,74,52,30,30.07,30.00,29.95,10,10,5,8,4,,0.00,0,,340
2013-3-8,53,38,24,27,20,16,74,50,24,29.97,29.92,29.86,10,10,10,16,6,18,0.00,1,,307
2013-3-9,55,44,33,25,21,18,60,44,25,30.36,30.20,29.98,10,10,10,22,15,30,0.00,0,,311
2013-3-10,57,40,24,23,19,14,64,41,23,30.45,30.35,30.28,10,10,8,12,7,,0.00,1,,336
2013-3-11,59,48,37,37,29,19,66,49,38,30.29,30.25,30.20,10,10,10,16,5,24,0.00,6,,319
2013-3-12,64,46,28,37,31,21,80,55,34,30.27,30.21,30.12,10,10,4,13,4,16,0.00,1,,110
2013-3-13,66,52,39,39,35,30,76,55,35,30.25,30.20,30.16,10,10,10,10,4,,0.00,0,,221
2013-3-14,64,48,33,39,34,27,76,60,37,30.20,30.15,30.09,10,10,8,13,4,,0.00,0,,216
2013-3-15,64,52,39,37,33,25,81,52,27,30.17,30.11,30.06,10,10,10,17,5,23,0.00,0,,318
2013-3-16,60,44,28,34,28,21,80,50,31,30.08,29.99,29.82,10,10,10,17,5,30,0.00,2,,334
2013-3-17,48,40,33,28,18,12,65,40,25,30.13,30.04,29.88,10,10,5,23,12,34,0.00,2,,316
2013-3-18,53,40,26,21,18,16,69,44,22,30.17,30.12,30.05,10,10,9,12,5,16,0.00,1,,295
2013-3-19,60,40,19,21,12,3,68,37,12,30.24,30.12,29.94,10,10,10,21,7,25,0.00,1,,136
2013-3-20,66,55,42,43,34,9,76,57,16,29.94,29.81,29.64,10,10,8,33,16,38,0.15,7,Thunderstorm,160
2013-3-21,48,40,33,28,20,14,70,47,27,30.14,30.05,29.91,10,10,9,18,11,24,0.00,5,,315
2013-3-22,44,37,28,25,17,10,75,49,27,30.20,30.10,30.06,10,10,5,22,11,31,0.00,4,,303
2013-3-23,42,30,19,19,13,9,68,47,27,30.32,30.26,30.21,10,10,9,13,8,,0.00,0,,314
2013-3-24,48,32,17,18,12,9,68,44,23,30.30,30.22,30.15,10,10,9,12,3,,0.00,0,,118
2013-3-25,57,44,30,21,16,12,47,34,25,30.16,30.08,29.94,10,10,10,22,13,26,0.00,4,,138
2013-3-26,57,48,39,34,27,19,61,45,34,29.99,29.95,29.91,10,10,9,14,8,20,0.00,3,,96
2013-3-27,64,48,33,37,31,25,75,54,34,30.00,29.95,29.91,10,10,9,16,6,21,0.00,3,,139
2013-3-28,66,50,35,37,33,27,75,51,30,30.06,30.01,29.95,10,10,9,8,4,,0.00,2,,142
2013-3-29,69,56,42,41,36,30,71,52,31,30.20,30.13,30.04,10,10,10,10,4,16,0.00,3,,349
2013-3-30,68,52,35,39,32,25,81,49,23,30.25,30.18,30.10,10,10,7,12,5,,0.00,0,,307
2013-3-31,71,52,32,39,29,21,70,46,23,30.10,30.00,29.84,10,10,7,18,5,21,0.00,0,,106